createdAt,value
2022-07-27T00:01:18.797Z,100794.57
2022-07-27T00:03:48.613Z,100790.59
2022-07-27T00:06:18.393Z,100787.63
2022-07-27T00:08:47.506Z,100783.04
2022-07-27T00:11:16.907Z,100778.77
2022-07-27T00:13:47.478Z,100780.77
2022-07-27T00:16:16.803Z,100787.40
2022-07-27T00:18:45.933Z,100784.55
2022-07-27T00:21:16.397Z,100778.14
2022-07-27T00:23:45.690Z,100774.60
2022-07-27T00:26:15.080Z,100777.29
2022-07-27T00:28:44.359Z,100779.45
2022-07-27T00:31:13.815Z,100774.71
2022-07-27T00:33:43.170Z,100776.21
2022-07-27T00:36:12.459Z,100779.92
2022-07-27T00:38:41.662Z,100779.29
2022-07-27T00:41:11.867Z,100779.20
2022-07-27T00:43:41.616Z,100781.22
2022-07-27T00:46:10.992Z,100782.80
2022-07-27T00:48:40.231Z,100783.83
2022-07-27T00:51:10.148Z,100788.52
2022-07-27T00:53:39.490Z,100787.78
2022-07-27T00:56:08.918Z,100795.75
2022-07-27T00:58:38.187Z,100789.34
2022-07-27T01:01:08.257Z,100780.17
2022-07-27T01:03:37.560Z,100783.09
2022-07-27T01:06:09.550Z,100780.63
2022-07-27T01:08:39.481Z,100777.82
2022-07-27T01:11:08.879Z,100780.15
2022-07-27T01:13:38.861Z,100779.02
2022-07-27T01:16:08.185Z,100789.09
2022-07-27T01:18:37.616Z,100800.23
2022-07-27T01:21:06.849Z,100801.19
2022-07-27T01:23:36.646Z,100799.33
2022-07-27T01:26:05.951Z,100800.45
2022-07-27T01:28:35.610Z,100797.22
2022-07-27T01:31:04.855Z,100797.09
2022-07-27T01:33:34.289Z,100797.82
2022-07-27T01:36:03.452Z,100796.52
2022-07-27T01:38:35.816Z,100793.30
2022-07-27T01:41:04.987Z,100791.19
2022-07-27T01:43:34.292Z,100791.77
2022-07-27T01:46:05.211Z,100786.60
2022-07-27T01:48:34.731Z,100785.36
2022-07-27T01:51:04.048Z,100787.18
2022-07-27T01:53:33.396Z,100786.42
2022-07-27T01:56:02.651Z,100788.79
2022-07-27T01:58:31.967Z,100788.77
2022-07-27T02:01:01.328Z,100790.77
2022-07-27T02:03:30.692Z,100787.00
2022-07-27T02:05:59.936Z,100788.48
2022-07-27T02:08:29.272Z,100795.30
2022-07-27T02:11:16.168Z,100792.64
2022-07-27T02:13:45.563Z,100789.80
2022-07-27T02:16:16.564Z,100788.17
2022-07-27T02:18:48.786Z,100792.34
2022-07-27T02:21:18.711Z,100797.23
2022-07-27T02:23:48.896Z,100792.63
2022-07-27T02:26:18.479Z,100792.10
2022-07-27T02:28:47.818Z,100793.12
2022-07-27T02:31:17.072Z,100797.82
2022-07-27T02:33:46.360Z,100803.70
2022-07-27T02:36:15.616Z,100800.95
2022-07-27T02:38:44.888Z,100802.05
2022-07-27T02:41:15.116Z,100806.40
2022-07-27T02:43:44.485Z,100806.67
2022-07-27T02:46:13.818Z,100810.22
2022-07-27T02:48:43.291Z,100812.38
2022-07-27T02:51:12.467Z,100814.45
2022-07-27T02:53:41.721Z,100816.38
2022-07-27T02:56:11.518Z,100818.34
2022-07-27T02:58:41.032Z,100818.96
2022-07-27T03:01:10.457Z,100820.12
2022-07-27T03:03:40.139Z,100820.61
2022-07-27T03:06:09.866Z,100830.73
2022-07-27T03:08:39.137Z,100838.13
2022-07-27T03:11:09.379Z,100836.27
2022-07-27T03:13:38.710Z,100841.16
2022-07-27T03:16:08.094Z,100840.80
2022-07-27T03:18:38.901Z,100842.14
2022-07-27T03:21:08.679Z,100839.73
2022-07-27T03:23:38.002Z,100842.16
2022-07-27T03:26:07.404Z,100850.71
2022-07-27T03:28:36.720Z,100853.61
2022-07-27T03:31:06.030Z,100857.92
2022-07-27T03:33:35.338Z,100854.36
2022-07-27T03:36:04.577Z,100853.36
2022-07-27T03:38:33.801Z,100852.30
2022-07-27T03:41:03.037Z,100848.58
2022-07-27T03:43:32.387Z,100846.91
2022-07-27T03:46:01.663Z,100855.25
2022-07-27T03:48:31.047Z,100858.77
2022-07-27T03:51:00.317Z,100852.37
2022-07-27T03:53:29.668Z,100845.35
2022-07-27T03:55:59.075Z,100843.06
2022-07-27T03:58:28.375Z,100847.90
2022-07-27T04:00:57.774Z,100844.52
2022-07-27T04:03:27.140Z,100844.80
2022-07-27T04:05:56.704Z,100843.52
2022-07-27T04:08:25.895Z,100842.61
2022-07-27T04:10:55.277Z,100835.65
2022-07-27T04:13:26.888Z,100832.64
2022-07-27T04:15:58.497Z,100829.15
2022-07-27T04:18:27.856Z,100829.48
2022-07-27T04:20:57.170Z,100830.69
2022-07-27T04:23:26.496Z,100830.45
2022-07-27T04:25:55.916Z,100830.88
2022-07-27T04:28:25.122Z,100823.98
2022-07-27T04:30:55.932Z,100822.38
2022-07-27T04:33:25.326Z,100822.40
2022-07-27T04:35:54.660Z,100824.30
2022-07-27T04:38:23.974Z,100825.80
2022-07-27T04:40:58.025Z,100826.64
2022-07-27T04:43:29.613Z,100826.40
2022-07-27T04:45:59.324Z,100826.91
2022-07-27T04:48:28.641Z,100826.33
2022-07-27T04:50:57.944Z,100829.46
2022-07-27T04:53:27.101Z,100830.73
2022-07-27T04:55:56.342Z,100832.00
2022-07-27T04:58:25.519Z,100834.52
2022-07-27T05:00:54.762Z,100845.52
2022-07-27T05:03:24.063Z,100841.91
2022-07-27T05:05:53.301Z,100841.61
2022-07-27T05:08:23.441Z,100844.59
2022-07-27T05:10:52.768Z,100852.66
2022-07-27T05:13:22.062Z,100857.44
2022-07-27T05:15:55.404Z,100848.04
2022-07-27T05:18:25.822Z,100845.89
2022-07-27T05:20:55.911Z,100843.16
2022-07-27T05:23:25.286Z,100847.52
2022-07-27T05:25:54.594Z,100856.81
2022-07-27T05:28:23.977Z,100861.18
2022-07-27T05:30:53.497Z,100869.01
2022-07-27T05:33:22.820Z,100871.90
2022-07-27T05:35:52.464Z,100874.34
2022-07-27T05:38:21.823Z,100877.09
2022-07-27T05:40:51.180Z,100892.36
2022-07-27T05:43:20.605Z,100897.29
2022-07-27T05:45:50.908Z,100902.95
2022-07-27T05:48:20.366Z,100906.89
2022-07-27T05:50:49.648Z,100910.85
2022-07-27T05:53:18.951Z,100910.91
2022-07-27T05:55:58.122Z,100913.60
2022-07-27T05:58:30.100Z,100920.04
2022-07-27T06:01:00.180Z,100925.21
2022-07-27T06:03:29.989Z,100924.79
2022-07-27T06:06:13.195Z,100923.31
2022-07-27T06:08:42.866Z,100922.80
2022-07-27T06:11:12.700Z,100918.55
2022-07-27T06:13:42.556Z,100917.23
2022-07-27T06:16:12.390Z,100920.34
2022-07-27T06:18:41.648Z,100921.33
2022-07-27T06:21:11.041Z,100918.73
2022-07-27T06:23:40.459Z,100920.58
2022-07-27T06:26:09.863Z,100925.24
2022-07-27T06:28:39.258Z,100920.09
2022-07-27T06:31:08.846Z,100923.13
2022-07-27T06:33:38.963Z,100932.12
2022-07-27T06:36:08.993Z,100927.50
2022-07-27T06:38:39.134Z,100930.04
2022-07-27T06:41:08.531Z,100928.02
2022-07-27T06:43:37.810Z,100922.96
2022-07-27T06:46:08.097Z,100914.24
2022-07-27T06:48:37.383Z,100918.32
2022-07-27T06:51:07.512Z,100916.90
2022-07-27T06:53:37.298Z,100917.50
2022-07-27T06:56:09.040Z,100921.98
2022-07-27T06:58:39.200Z,100922.73
2022-07-27T07:01:08.566Z,100920.56
2022-07-27T07:03:38.536Z,100920.19
2022-07-27T07:06:07.888Z,100922.83
2022-07-27T07:08:37.232Z,100917.79
2022-07-27T07:11:06.697Z,100922.35
2022-07-27T07:13:39.269Z,100922.17
2022-07-27T07:16:11.394Z,100923.18
2022-07-27T07:18:40.653Z,100927.08
2022-07-27T07:21:09.941Z,100931.47
2022-07-27T07:23:39.182Z,100934.13
2022-07-27T07:26:08.493Z,100934.06
2022-07-27T07:28:37.781Z,100933.41
2022-07-27T07:31:07.254Z,100933.66
2022-07-27T07:33:36.634Z,100937.01
2022-07-27T07:36:12.352Z,100939.58
2022-07-27T07:38:44.669Z,100942.27
2022-07-27T07:41:13.993Z,100943.11
2022-07-27T07:43:43.471Z,100945.95
2022-07-27T07:46:12.714Z,100947.41
2022-07-27T07:48:43.949Z,100947.20
2022-07-27T07:51:13.207Z,100941.86
2022-07-27T07:53:42.540Z,100944.67
2022-07-27T07:56:11.877Z,100940.13
2022-07-27T07:58:41.215Z,100930.77
2022-07-27T08:01:12.792Z,100935.66
2022-07-27T08:03:44.097Z,100937.39
2022-07-27T08:06:17.108Z,100937.14
2022-07-27T08:08:46.488Z,100935.93
2022-07-27T08:11:15.874Z,100934.27
2022-07-27T08:13:45.259Z,100931.70
2022-07-27T08:16:14.636Z,100931.61
2022-07-27T08:18:43.807Z,100933.56
2022-07-27T08:21:13.048Z,100935.34
2022-07-27T08:23:42.427Z,100940.59
2022-07-27T08:26:11.810Z,100940.52
2022-07-27T08:28:41.327Z,100942.40
2022-07-27T08:31:14.191Z,100939.63
2022-07-27T08:33:45.224Z,100933.06
2022-07-27T08:36:14.551Z,100933.69
2022-07-27T08:38:43.734Z,100933.70
2022-07-27T08:41:13.776Z,100938.64
2022-07-27T08:43:43.116Z,100939.83
2022-07-27T08:46:12.472Z,100934.48
2022-07-27T08:48:42.071Z,100934.88
2022-07-27T08:51:11.342Z,100939.39
2022-07-27T08:53:52.550Z,100936.61
2022-07-27T08:56:23.623Z,100941.81
2022-07-27T08:58:53.482Z,100945.13
2022-07-27T09:01:23.112Z,100937.77
2022-07-27T09:03:53.018Z,100930.86
2022-07-27T09:06:22.423Z,100935.23
2022-07-27T09:08:53.442Z,100929.27
2022-07-27T09:11:23.409Z,100925.81
2022-07-27T09:13:53.359Z,100926.20
2022-07-27T09:16:22.973Z,100936.46
2022-07-27T09:18:52.749Z,100933.20
2022-07-27T09:21:22.154Z,100932.91
2022-07-27T09:23:52.393Z,100932.49
2022-07-27T09:26:36.749Z,100932.73
2022-07-27T09:29:06.944Z,100929.91
2022-07-27T09:31:36.387Z,100926.52
2022-07-27T09:34:06.148Z,100925.93
2022-07-27T09:36:35.429Z,100923.48
2022-07-27T09:39:06.203Z,100917.42
2022-07-27T09:41:35.630Z,100923.42
2022-07-27T09:44:30.841Z,100926.44
2022-07-27T09:46:54.177Z,100920.75
2022-07-27T09:49:23.659Z,100920.87
2022-07-27T09:52:01.705Z,100920.14
2022-07-27T09:54:32.108Z,100913.45
2022-07-27T09:57:04.270Z,100913.48
2022-07-27T09:59:33.556Z,100908.37
2022-07-27T10:02:03.053Z,100911.86
2022-07-27T10:04:32.734Z,100910.08
2022-07-27T10:07:04.643Z,100916.45
2022-07-27T10:09:36.614Z,100919.33
2022-07-27T10:12:06.563Z,100925.09
2022-07-27T10:14:36.893Z,100923.23
2022-07-27T10:17:06.409Z,100929.34
2022-07-27T10:19:35.792Z,100936.27
2022-07-27T10:22:05.170Z,100941.61
2022-07-27T10:24:37.266Z,100941.35
2022-07-27T10:27:07.208Z,100933.36
2022-07-27T10:29:36.722Z,100937.52
2022-07-27T10:32:05.952Z,100934.91
2022-07-27T10:34:35.328Z,100931.65
2022-07-27T10:37:04.589Z,100928.40
2022-07-27T10:39:33.857Z,100926.95
2022-07-27T10:42:03.185Z,100926.05
2022-07-27T10:44:32.558Z,100929.29
2022-07-27T10:47:02.006Z,100933.02
2022-07-27T10:49:31.283Z,100928.60
2022-07-27T10:52:00.520Z,100922.91
2022-07-27T10:54:33.038Z,100932.15
2022-07-27T10:57:02.747Z,100938.52
2022-07-27T10:59:51.224Z,100929.11
2022-07-27T11:02:23.602Z,100918.94
2022-07-27T11:04:56.475Z,100920.09
2022-07-27T11:07:34.293Z,100918.81
2022-07-27T11:10:09.626Z,100920.68
2022-07-27T11:12:39.501Z,100916.11
2022-07-27T11:15:08.746Z,100921.21
2022-07-27T11:18:00.686Z,100912.00
2022-07-27T11:20:31.594Z,100917.30
2022-07-27T11:23:48.709Z,100909.81
2022-07-27T11:25:52.881Z,100914.23
2022-07-27T11:28:22.730Z,100906.23
2022-07-27T11:30:52.858Z,100913.73
2022-07-27T11:33:22.193Z,100915.83
2022-07-27T11:35:51.624Z,100905.96
2022-07-27T11:38:21.105Z,100908.48
2022-07-27T11:40:59.895Z,100914.02
2022-07-27T11:43:39.001Z,100909.44
2022-07-27T11:46:09.055Z,100912.73
2022-07-27T11:49:03.961Z,100921.45
2022-07-27T11:51:27.858Z,100922.64
2022-07-27T11:53:57.135Z,100925.86
2022-07-27T11:56:26.523Z,100923.30
2022-07-27T11:59:01.285Z,100922.77
2022-07-27T12:01:31.253Z,100924.42
2022-07-27T12:04:00.629Z,100918.34
2022-07-27T12:06:30.038Z,100917.98
2022-07-27T12:08:59.333Z,100919.45
2022-07-27T12:11:34.069Z,100918.73
2022-07-27T12:14:04.080Z,100927.06
2022-07-27T12:16:33.328Z,100920.14
2022-07-27T12:19:02.690Z,100919.14
2022-07-27T12:21:32.305Z,100921.49
2022-07-27T12:24:02.191Z,100920.35
2022-07-27T12:26:31.586Z,100915.54
2022-07-27T12:29:01.018Z,100923.06
2022-07-27T12:31:30.483Z,100922.05
2022-07-27T12:34:06.106Z,100922.98
2022-07-27T12:36:36.641Z,100910.85
2022-07-27T12:39:06.003Z,100906.56
2022-07-27T12:41:38.298Z,100912.95
2022-07-27T12:44:07.733Z,100912.05
2022-07-27T12:46:37.038Z,100915.15
2022-07-27T12:49:06.518Z,100907.62
2022-07-27T12:51:35.885Z,100910.08
2022-07-27T12:54:05.309Z,100909.21
2022-07-27T12:56:34.800Z,100906.70
2022-07-27T12:59:04.151Z,100909.54
2022-07-27T13:01:33.700Z,100899.56
2022-07-27T13:04:03.407Z,100908.44
2022-07-27T13:06:32.802Z,100912.83
2022-07-27T13:09:02.066Z,100913.86
2022-07-27T13:11:31.501Z,100908.14
2022-07-27T13:14:00.691Z,100902.24
2022-07-27T13:16:30.247Z,100911.02
2022-07-27T13:18:59.585Z,100905.59
2022-07-27T13:21:28.885Z,100907.15
2022-07-27T13:23:59.081Z,100903.61
2022-07-27T13:26:28.492Z,100904.60
2022-07-27T13:28:57.718Z,100900.56
2022-07-27T13:31:27.019Z,100909.94
2022-07-27T13:33:56.443Z,100905.60
2022-07-27T13:36:25.775Z,100908.74
2022-07-27T13:38:55.184Z,100915.63
2022-07-27T13:41:24.597Z,100921.83
2022-07-27T13:43:54.025Z,100917.69
2022-07-27T13:46:23.389Z,100923.23
2022-07-27T13:48:53.602Z,100915.79
2022-07-27T13:51:22.920Z,100915.92
2022-07-27T13:53:52.118Z,100916.23
2022-07-27T13:56:23.806Z,100909.82
2022-07-27T13:58:54.775Z,100921.39
2022-07-27T14:01:24.047Z,100918.98
2022-07-27T14:03:53.680Z,100923.04
2022-07-27T14:06:22.811Z,100925.73
2022-07-27T14:08:54.317Z,100928.07
2022-07-27T14:11:23.566Z,100921.09
2022-07-27T14:13:52.760Z,100913.10
2022-07-27T14:16:21.943Z,100918.75
2022-07-27T14:18:51.157Z,100929.65
2022-07-27T14:21:20.309Z,100922.14
2022-07-27T14:23:49.617Z,100905.04
2022-07-27T14:26:18.832Z,100904.14
2022-07-27T14:28:48.005Z,100906.08
2022-07-27T14:31:17.343Z,100916.06
2022-07-27T14:33:47.400Z,100913.79
2022-07-27T14:36:16.644Z,100908.45
2022-07-27T14:38:45.958Z,100909.77
2022-07-27T14:41:16.133Z,100911.13
2022-07-27T14:43:45.362Z,100906.11
2022-07-27T14:46:14.618Z,100906.96
2022-07-27T14:51:32.946Z,100905.66
2022-07-27T14:54:02.189Z,100897.96
2022-07-27T14:56:31.470Z,100901.31
2022-07-27T14:59:00.614Z,100906.99
2022-07-27T15:01:29.926Z,100908.16
2022-07-27T15:03:59.262Z,100911.71
2022-07-27T15:06:28.631Z,100909.21
2022-07-27T15:08:57.978Z,100905.56
2022-07-27T15:11:27.999Z,100899.83
2022-07-27T15:13:58.266Z,100907.69
2022-07-27T15:16:27.448Z,100904.31
2022-07-27T15:18:56.559Z,100907.64
2022-07-27T15:21:25.788Z,100909.87
2022-07-27T15:23:55.078Z,100910.66
2022-07-27T15:26:24.880Z,100910.50
2022-07-27T15:28:54.107Z,100912.96
2022-07-27T15:31:23.358Z,100912.08
2022-07-27T15:33:52.549Z,100913.57
2022-07-27T15:36:32.050Z,100922.45
2022-07-27T15:39:05.536Z,100914.98
2022-07-27T15:41:37.651Z,100921.86
2022-07-27T15:44:06.877Z,100922.36
2022-07-27T15:46:36.060Z,100918.39
2022-07-27T15:49:05.464Z,100922.41
2022-07-27T15:51:34.730Z,100915.24
2022-07-27T15:54:03.924Z,100917.05
2022-07-27T15:56:33.277Z,100921.10
2022-07-27T15:59:03.407Z,100916.55
2022-07-27T16:01:35.190Z,100921.85
2022-07-27T16:04:05.452Z,100918.23
2022-07-27T16:06:39.031Z,100917.11
2022-07-27T16:09:10.885Z,100921.23
2022-07-27T16:11:41.515Z,100917.81
2022-07-27T16:14:10.684Z,100913.95
2022-07-27T16:16:39.865Z,100912.01
2022-07-27T16:19:13.039Z,100912.56
2022-07-27T16:21:54.660Z,100918.21
2022-07-27T16:24:25.510Z,100918.54
2022-07-27T16:26:54.652Z,100917.49
2022-07-27T16:29:23.978Z,100914.25
2022-07-27T16:31:58.460Z,100912.59
2022-07-27T16:34:28.265Z,100914.36
2022-07-27T16:36:57.358Z,100911.72
2022-07-27T16:39:26.605Z,100910.01
2022-07-27T16:41:55.816Z,100912.48
2022-07-27T16:44:25.074Z,100909.02
2022-07-27T16:46:54.463Z,100908.08
2022-07-27T16:49:33.870Z,100908.92
2022-07-27T16:52:06.724Z,100909.27
2022-07-27T16:54:39.653Z,100911.06
2022-07-27T16:57:11.159Z,100907.71
2022-07-27T16:59:42.153Z,100908.57
2022-07-27T17:02:11.584Z,100918.06
2022-07-27T17:04:41.200Z,100919.20
2022-07-27T17:07:12.238Z,100922.70
2022-07-27T17:09:42.459Z,100927.11
2022-07-27T17:12:11.771Z,100927.38
2022-07-27T17:14:47.122Z,100927.15
2022-07-27T17:17:18.083Z,100920.17
2022-07-27T17:19:47.473Z,100924.48
2022-07-27T17:22:16.818Z,100922.63
2022-07-27T17:24:46.711Z,100922.58
2022-07-27T17:27:15.978Z,100918.04
2022-07-27T17:29:45.290Z,100918.89
2022-07-27T17:32:14.651Z,100920.23
2022-07-27T17:34:46.053Z,100921.06
2022-07-27T17:37:15.737Z,100921.32
2022-07-27T17:39:45.072Z,100925.98
2022-07-27T17:42:14.323Z,100922.52
2022-07-27T17:44:43.621Z,100922.02
2022-07-27T17:47:13.595Z,100923.29
2022-07-27T17:49:46.399Z,100923.83
2022-07-27T17:52:15.544Z,100927.27
2022-07-27T17:54:47.983Z,100933.17
2022-07-27T17:57:17.172Z,100932.77
2022-07-27T17:59:46.878Z,100931.86
2022-07-27T18:02:19.181Z,100939.91
2022-07-27T18:04:48.565Z,100935.48
2022-07-27T18:07:18.878Z,100939.55
2022-07-27T18:09:48.021Z,100939.96
2022-07-27T18:12:21.776Z,100945.16
2022-07-27T18:15:08.853Z,100951.78
2022-07-27T18:17:39.719Z,100954.39
2022-07-27T18:20:09.795Z,100953.79
2022-07-27T18:22:39.564Z,100950.16
2022-07-27T18:25:09.480Z,100951.67
2022-07-27T18:27:38.773Z,100956.83
2022-07-27T18:30:08.131Z,100957.86
2022-07-27T18:32:37.438Z,100957.73
2022-07-27T18:35:06.608Z,100957.65
2022-07-27T18:37:35.962Z,100964.15
2022-07-27T18:40:05.397Z,100963.13
2022-07-27T18:42:34.623Z,100961.99
2022-07-27T18:45:03.886Z,100964.55
2022-07-27T18:47:33.217Z,100971.43
2022-07-27T18:50:02.412Z,100972.77
2022-07-27T18:52:31.713Z,100974.91
2022-07-27T18:55:01.010Z,100975.66
2022-07-27T18:57:32.382Z,100977.36
2022-07-27T19:00:01.621Z,100980.79
2022-07-27T19:02:37.142Z,100992.75
2022-07-27T19:05:10.416Z,100989.57
2022-07-27T19:07:43.953Z,100995.08
2022-07-27T19:10:16.294Z,100997.54
2022-07-27T19:12:45.618Z,101001.25
2022-07-27T19:15:15.088Z,101000.73
2022-07-27T19:17:47.738Z,101008.52
2022-07-27T19:20:17.075Z,101011.59
2022-07-27T19:22:48.109Z,101010.80
2022-07-27T19:25:17.650Z,101016.11
2022-07-27T19:27:46.920Z,101026.79
2022-07-27T19:30:16.876Z,101029.13
2022-07-27T19:32:47.858Z,101029.92
2022-07-27T19:35:20.288Z,101031.90
2022-07-27T19:37:49.718Z,101036.91
2022-07-27T19:43:08.309Z,101037.25
2022-07-27T19:45:37.767Z,101037.61
2022-07-27T19:48:08.722Z,101038.28
2022-07-27T19:50:38.096Z,101037.17
2022-07-27T19:53:07.841Z,101042.06
2022-07-27T19:55:37.043Z,101043.54
2022-07-27T19:58:06.258Z,101046.27
2022-07-27T20:00:35.415Z,101048.01
2022-07-27T20:03:04.722Z,101049.66
2022-07-27T20:05:33.898Z,101053.21
2022-07-27T20:08:03.198Z,101056.30
2022-07-27T20:10:33.072Z,101054.35
2022-07-27T20:13:03.316Z,101055.67
2022-07-27T20:15:34.250Z,101059.54
2022-07-27T20:18:03.539Z,101064.23
2022-07-27T20:20:32.775Z,101066.11
2022-07-27T20:23:02.697Z,101065.27
2022-07-27T20:25:32.039Z,101069.57
2022-07-27T20:28:03.575Z,101070.58
2022-07-27T20:30:33.029Z,101072.02
2022-07-27T20:33:02.341Z,101075.08
2022-07-27T20:35:37.637Z,101074.14
2022-07-27T20:38:07.635Z,101073.86
2022-07-27T20:40:36.882Z,101079.51
2022-07-27T20:43:06.123Z,101084.59
2022-07-27T20:45:35.569Z,101087.77
2022-07-27T20:48:04.870Z,101084.63
2022-07-27T20:50:34.586Z,101088.70
2022-07-27T20:53:05.836Z,101093.02
2022-07-27T20:55:35.272Z,101093.98
2022-07-27T20:58:04.535Z,101094.11
2022-07-27T21:00:33.918Z,101094.05
2022-07-27T21:03:03.776Z,101093.76
2022-07-27T21:05:33.018Z,101096.59
2022-07-27T21:08:02.217Z,101095.90
2022-07-27T21:10:31.535Z,101095.34
2022-07-27T21:13:00.774Z,101097.31
2022-07-27T21:15:33.966Z,101104.69
2022-07-27T21:18:04.038Z,101103.20
2022-07-27T21:20:33.272Z,101104.94
2022-07-27T21:23:20.140Z,101100.80
2022-07-27T21:25:49.389Z,101103.48
2022-07-27T21:28:21.010Z,101106.52
2022-07-27T21:30:54.482Z,101109.95
2022-07-27T21:33:23.865Z,101112.54
2022-07-27T21:35:53.316Z,101118.58
2022-07-27T21:38:22.534Z,101121.84
2022-07-27T21:40:52.530Z,101125.62
2022-07-27T21:43:21.692Z,101123.85
2022-07-27T21:45:52.246Z,101130.45
2022-07-27T21:48:21.631Z,101133.89
2022-07-27T21:50:50.943Z,101135.26
2022-07-27T21:53:20.230Z,101131.76
2022-07-27T21:55:49.641Z,101133.64
2022-07-27T21:58:18.950Z,101136.46
2022-07-27T22:00:48.182Z,101139.55
2022-07-27T22:03:17.638Z,101145.74
2022-07-27T22:05:46.938Z,101150.77
2022-07-27T22:08:16.134Z,101154.21
2022-07-27T22:10:45.436Z,101158.80
2022-07-27T22:13:14.758Z,101160.52
2022-07-27T22:15:43.907Z,101160.88
2022-07-27T22:18:13.054Z,101161.42
2022-07-27T22:20:42.231Z,101163.45
2022-07-27T22:23:11.377Z,101164.72
2022-07-27T22:25:40.522Z,101164.03
2022-07-27T22:28:09.792Z,101165.47
2022-07-27T22:30:40.417Z,101165.23
2022-07-27T22:33:09.790Z,101165.92
2022-07-27T22:35:39.019Z,101166.27
2022-07-27T22:38:08.993Z,101167.91
2022-07-27T22:40:38.221Z,101170.41
2022-07-27T22:43:07.997Z,101172.49
2022-07-27T22:45:37.872Z,101172.52
2022-07-27T22:48:07.000Z,101173.13
2022-07-27T22:50:36.176Z,101175.98
2022-07-27T22:53:05.412Z,101180.39
2022-07-27T22:55:34.710Z,101188.59
2022-07-27T22:58:03.955Z,101188.73
2022-07-27T23:00:33.371Z,101189.45
2022-07-27T23:03:04.497Z,101188.56
2022-07-27T23:05:33.733Z,101183.03
2022-07-27T23:08:02.989Z,101183.09
2022-07-27T23:10:49.991Z,101185.41
2022-07-27T23:13:19.340Z,101190.05
2022-07-27T23:15:48.644Z,101187.41
2022-07-27T23:18:17.922Z,101188.48
2022-07-27T23:20:47.283Z,101185.41
2022-07-27T23:23:17.348Z,101186.90
2022-07-27T23:25:47.151Z,101188.20
2022-07-27T23:28:16.911Z,101189.62
2022-07-27T23:30:46.214Z,101191.20
2022-07-27T23:33:16.107Z,101194.02
2022-07-27T23:35:45.408Z,101191.77
2022-07-27T23:38:14.621Z,101191.00
2022-07-27T23:40:43.874Z,101192.58
2022-07-27T23:43:13.132Z,101194.66
2022-07-27T23:45:42.395Z,101196.98
2022-07-27T23:48:11.790Z,101193.73
2022-07-27T23:50:41.085Z,101195.80
2022-07-27T23:53:10.340Z,101196.65
2022-07-27T23:55:39.612Z,101194.14
2022-07-27T23:58:08.950Z,101193.89
